sensor_id;sensor_type;location;lat;lon;timestamp;P1;durP1;ratioP1;P2;durP2;ratioP2
5587;SDS011;2816;49.778;9.986;2022-12-10T00:01:29;20.00;;;11.77;;
5587;SDS011;2816;49.778;9.986;2022-12-10T00:03:57;20.83;;;12.40;;
5587;SDS011;2816;49.778;9.986;2022-12-10T00:06:26;18.70;;;11.37;;
5587;SDS011;2816;49.778;9.986;2022-12-10T00:08:56;19.20;;;12.87;;
5587;SDS011;2816;49.778;9.986;2022-12-10T00:11:23;20.13;;;12.43;;
5587;SDS011;2816;49.778;9.986;2022-12-10T00:13:50;18.60;;;12.60;;
5587;SDS011;2816;49.778;9.986;2022-12-10T00:16:19;19.50;;;11.60;;
5587;SDS011;2816;49.778;9.986;2022-12-10T00:18:47;19.40;;;12.43;;
5587;SDS011;2816;49.778;9.986;2022-12-10T00:21:15;20.23;;;12.57;;
5587;SDS011;2816;49.778;9.986;2022-12-10T00:23:44;19.40;;;12.27;;
5587;SDS011;2816;49.778;9.986;2022-12-10T00:26:13;18.50;;;12.20;;
5587;SDS011;2816;49.778;9.986;2022-12-10T00:28:42;19.07;;;11.90;;
5587;SDS011;2816;49.778;9.986;2022-12-10T00:31:10;15.20;;;11.00;;
5587;SDS011;2816;49.778;9.986;2022-12-10T00:33:38;18.63;;;11.87;;
5587;SDS011;2816;49.778;9.986;2022-12-10T00:36:07;19.90;;;11.67;;
5587;SDS011;2816;49.778;9.986;2022-12-10T00:38:35;24.30;;;12.07;;
5587;SDS011;2816;49.778;9.986;2022-12-10T00:41:03;19.87;;;12.20;;
5587;SDS011;2816;49.778;9.986;2022-12-10T00:43:32;19.77;;;11.87;;
5587;SDS011;2816;49.778;9.986;2022-12-10T00:45:59;18.07;;;11.20;;
5587;SDS011;2816;49.778;9.986;2022-12-10T00:48:26;18.10;;;11.77;;
5587;SDS011;2816;49.778;9.986;2022-12-10T00:50:54;16.67;;;11.30;;
5587;SDS011;2816;49.778;9.986;2022-12-10T00:53:22;20.37;;;12.80;;
5587;SDS011;2816;49.778;9.986;2022-12-10T00:55:50;19.60;;;12.13;;
5587;SDS011;2816;49.778;9.986;2022-12-10T00:58:17;19.57;;;11.97;;
5587;SDS011;2816;49.778;9.986;2022-12-10T01:00:46;22.07;;;11.53;;
5587;SDS011;2816;49.778;9.986;2022-12-10T01:03:14;16.67;;;10.77;;
5587;SDS011;2816;49.778;9.986;2022-12-10T01:05:41;17.40;;;11.50;;
5587;SDS011;2816;49.778;9.986;2022-12-10T01:08:08;16.07;;;11.50;;
5587;SDS011;2816;49.778;9.986;2022-12-10T01:10:35;18.30;;;12.27;;
5587;SDS011;2816;49.778;9.986;2022-12-10T01:13:02;19.90;;;11.90;;
5587;SDS011;2816;49.778;9.986;2022-12-10T01:15:29;23.20;;;10.90;;
5587;SDS011;2816;49.778;9.986;2022-12-10T01:17:58;17.13;;;11.70;;
5587;SDS011;2816;49.778;9.986;2022-12-10T01:20:25;18.37;;;11.70;;
5587;SDS011;2816;49.778;9.986;2022-12-10T01:22:51;15.80;;;10.90;;
5587;SDS011;2816;49.778;9.986;2022-12-10T01:25:18;17.53;;;11.97;;
5587;SDS011;2816;49.778;9.986;2022-12-10T01:27:45;18.90;;;12.03;;
5587;SDS011;2816;49.778;9.986;2022-12-10T01:30:12;18.13;;;11.80;;
5587;SDS011;2816;49.778;9.986;2022-12-10T01:32:39;17.73;;;11.63;;
5587;SDS011;2816;49.778;9.986;2022-12-10T01:35:08;16.73;;;11.00;;
5587;SDS011;2816;49.778;9.986;2022-12-10T01:37:35;16.03;;;11.03;;
5587;SDS011;2816;49.778;9.986;2022-12-10T01:40:02;16.40;;;11.70;;
5587;SDS011;2816;49.778;9.986;2022-12-10T01:42:29;16.93;;;11.63;;
5587;SDS011;2816;49.778;9.986;2022-12-10T01:45:01;15.73;;;10.40;;
5587;SDS011;2816;49.778;9.986;2022-12-10T01:47:33;17.63;;;11.50;;
5587;SDS011;2816;49.778;9.986;2022-12-10T01:50:02;18.43;;;12.10;;
5587;SDS011;2816;49.778;9.986;2022-12-10T01:52:32;19.57;;;12.03;;
5587;SDS011;2816;49.778;9.986;2022-12-10T01:54:58;15.57;;;11.30;;
5587;SDS011;2816;49.778;9.986;2022-12-10T01:57:26;16.83;;;10.90;;
5587;SDS011;2816;49.778;9.986;2022-12-10T01:59:55;22.13;;;11.97;;
5587;SDS011;2816;49.778;9.986;2022-12-10T02:02:26;21.40;;;12.50;;
5587;SDS011;2816;49.778;9.986;2022-12-10T02:05:05;21.20;;;12.33;;
5587;SDS011;2816;49.778;9.986;2022-12-10T02:07:42;17.73;;;12.00;;
5587;SDS011;2816;49.778;9.986;2022-12-10T02:10:21;19.50;;;12.73;;
5587;SDS011;2816;49.778;9.986;2022-12-10T02:12:55;22.83;;;13.20;;
5587;SDS011;2816;49.778;9.986;2022-12-10T02:15:27;22.20;;;12.80;;
5587;SDS011;2816;49.778;9.986;2022-12-10T02:17:59;18.37;;;13.17;;
5587;SDS011;2816;49.778;9.986;2022-12-10T02:20:30;18.20;;;12.30;;
5587;SDS011;2816;49.778;9.986;2022-12-10T02:23:04;19.77;;;12.13;;
5587;SDS011;2816;49.778;9.986;2022-12-10T02:25:36;19.47;;;11.70;;
5587;SDS011;2816;49.778;9.986;2022-12-10T02:28:10;18.40;;;12.10;;
5587;SDS011;2816;49.778;9.986;2022-12-10T02:30:44;19.23;;;12.97;;
5587;SDS011;2816;49.778;9.986;2022-12-10T02:33:14;20.40;;;12.70;;
5587;SDS011;2816;49.778;9.986;2022-12-10T02:35:43;17.57;;;11.10;;
5587;SDS011;2816;49.778;9.986;2022-12-10T02:38:14;17.17;;;11.27;;
5587;SDS011;2816;49.778;9.986;2022-12-10T02:40:44;17.70;;;11.50;;
5587;SDS011;2816;49.778;9.986;2022-12-10T02:43:19;19.57;;;12.40;;
5587;SDS011;2816;49.778;9.986;2022-12-10T02:45:50;16.37;;;11.73;;
5587;SDS011;2816;49.778;9.986;2022-12-10T02:48:17;17.00;;;11.97;;
5587;SDS011;2816;49.778;9.986;2022-12-10T02:50:45;14.87;;;10.50;;
5587;SDS011;2816;49.778;9.986;2022-12-10T02:53:12;17.40;;;11.20;;
5587;SDS011;2816;49.778;9.986;2022-12-10T02:55:47;17.80;;;11.47;;
5587;SDS011;2816;49.778;9.986;2022-12-10T02:58:23;23.87;;;11.07;;
5587;SDS011;2816;49.778;9.986;2022-12-10T03:00:58;15.57;;;10.60;;
5587;SDS011;2816;49.778;9.986;2022-12-10T03:03:34;15.83;;;10.73;;
5587;SDS011;2816;49.778;9.986;2022-12-10T03:06:08;17.10;;;11.00;;
5587;SDS011;2816;49.778;9.986;2022-12-10T03:08:45;16.93;;;10.80;;
5587;SDS011;2816;49.778;9.986;2022-12-10T03:11:15;19.00;;;11.73;;
5587;SDS011;2816;49.778;9.986;2022-12-10T03:13:47;18.57;;;11.43;;
5587;SDS011;2816;49.778;9.986;2022-12-10T03:16:19;13.87;;;10.50;;
5587;SDS011;2816;49.778;9.986;2022-12-10T03:18:49;21.80;;;12.53;;
5587;SDS011;2816;49.778;9.986;2022-12-10T03:21:19;16.23;;;10.07;;
5587;SDS011;2816;49.778;9.986;2022-12-10T03:23:46;15.03;;;10.53;;
5587;SDS011;2816;49.778;9.986;2022-12-10T03:26:15;13.80;;;10.10;;
5587;SDS011;2816;49.778;9.986;2022-12-10T03:28:45;17.27;;;10.90;;
5587;SDS011;2816;49.778;9.986;2022-12-10T03:31:16;16.10;;;10.30;;
5587;SDS011;2816;49.778;9.986;2022-12-10T03:33:46;16.60;;;11.67;;
5587;SDS011;2816;49.778;9.986;2022-12-10T03:36:15;18.50;;;10.57;;
5587;SDS011;2816;49.778;9.986;2022-12-10T03:38:43;19.57;;;10.10;;
5587;SDS011;2816;49.778;9.986;2022-12-10T03:41:10;18.07;;;10.77;;
5587;SDS011;2816;49.778;9.986;2022-12-10T03:43:49;17.60;;;10.73;;
5587;SDS011;2816;49.778;9.986;2022-12-10T03:46:16;17.47;;;10.63;;
5587;SDS011;2816;49.778;9.986;2022-12-10T03:48:45;17.87;;;10.90;;
5587;SDS011;2816;49.778;9.986;2022-12-10T03:51:12;15.83;;;10.40;;
5587;SDS011;2816;49.778;9.986;2022-12-10T03:53:40;15.73;;;10.83;;
5587;SDS011;2816;49.778;9.986;2022-12-10T03:56:07;22.83;;;10.10;;
5587;SDS011;2816;49.778;9.986;2022-12-10T03:58:34;20.67;;;11.60;;
5587;SDS011;2816;49.778;9.986;2022-12-10T04:01:01;20.03;;;11.57;;
5587;SDS011;2816;49.778;9.986;2022-12-10T04:03:29;16.77;;;10.90;;
5587;SDS011;2816;49.778;9.986;2022-12-10T04:06:00;17.10;;;11.00;;
5587;SDS011;2816;49.778;9.986;2022-12-10T04:08:28;17.57;;;10.70;;
5587;SDS011;2816;49.778;9.986;2022-12-10T04:11:01;16.30;;;10.10;;
5587;SDS011;2816;49.778;9.986;2022-12-10T04:13:30;16.53;;;11.03;;
5587;SDS011;2816;49.778;9.986;2022-12-10T04:16:24;16.20;;;10.83;;
5587;SDS011;2816;49.778;9.986;2022-12-10T04:18:56;16.40;;;10.10;;
5587;SDS011;2816;49.778;9.986;2022-12-10T04:21:25;17.53;;;11.50;;
5587;SDS011;2816;49.778;9.986;2022-12-10T04:24:10;19.20;;;11.53;;
5587;SDS011;2816;49.778;9.986;2022-12-10T04:26:57;17.00;;;10.27;;
5587;SDS011;2816;49.778;9.986;2022-12-10T04:29:26;17.20;;;11.20;;
5587;SDS011;2816;49.778;9.986;2022-12-10T04:31:55;13.70;;;9.83;;
5587;SDS011;2816;49.778;9.986;2022-12-10T04:34:25;13.17;;;9.63;;
5587;SDS011;2816;49.778;9.986;2022-12-10T04:36:52;17.07;;;10.83;;
5587;SDS011;2816;49.778;9.986;2022-12-10T04:39:19;14.73;;;9.67;;
5587;SDS011;2816;49.778;9.986;2022-12-10T04:41:47;20.00;;;11.07;;
5587;SDS011;2816;49.778;9.986;2022-12-10T04:44:15;15.57;;;10.33;;
5587;SDS011;2816;49.778;9.986;2022-12-10T04:46:42;16.90;;;11.20;;
5587;SDS011;2816;49.778;9.986;2022-12-10T04:49:10;16.43;;;10.73;;
5587;SDS011;2816;49.778;9.986;2022-12-10T04:51:38;17.03;;;11.00;;
5587;SDS011;2816;49.778;9.986;2022-12-10T04:54:06;16.57;;;10.80;;
5587;SDS011;2816;49.778;9.986;2022-12-10T04:56:33;24.23;;;10.90;;
5587;SDS011;2816;49.778;9.986;2022-12-10T04:59:01;17.10;;;11.17;;
5587;SDS011;2816;49.778;9.986;2022-12-10T05:01:29;19.50;;;11.77;;
5587;SDS011;2816;49.778;9.986;2022-12-10T05:03:58;19.37;;;11.80;;
5587;SDS011;2816;49.778;9.986;2022-12-10T05:06:25;19.07;;;11.27;;
5587;SDS011;2816;49.778;9.986;2022-12-10T05:08:54;19.13;;;11.23;;
5587;SDS011;2816;49.778;9.986;2022-12-10T05:11:22;20.90;;;12.43;;
5587;SDS011;2816;49.778;9.986;2022-12-10T05:13:51;18.73;;;12.43;;
5587;SDS011;2816;49.778;9.986;2022-12-10T05:16:20;23.57;;;13.17;;
5587;SDS011;2816;49.778;9.986;2022-12-10T05:18:48;17.83;;;11.83;;
5587;SDS011;2816;49.778;9.986;2022-12-10T05:21:17;17.70;;;11.73;;
5587;SDS011;2816;49.778;9.986;2022-12-10T05:23:46;18.13;;;11.73;;
5587;SDS011;2816;49.778;9.986;2022-12-10T05:26:15;21.03;;;12.27;;
5587;SDS011;2816;49.778;9.986;2022-12-10T05:28:44;21.00;;;12.90;;
5587;SDS011;2816;49.778;9.986;2022-12-10T05:31:13;19.03;;;12.30;;
5587;SDS011;2816;49.778;9.986;2022-12-10T05:33:41;20.77;;;13.10;;
5587;SDS011;2816;49.778;9.986;2022-12-10T05:36:09;22.33;;;11.77;;
5587;SDS011;2816;49.778;9.986;2022-12-10T05:38:37;19.67;;;12.57;;
5587;SDS011;2816;49.778;9.986;2022-12-10T05:41:05;18.80;;;12.33;;
5587;SDS011;2816;49.778;9.986;2022-12-10T05:43:36;20.40;;;11.70;;
5587;SDS011;2816;49.778;9.986;2022-12-10T05:46:05;18.70;;;11.43;;
5587;SDS011;2816;49.778;9.986;2022-12-10T05:48:35;16.47;;;11.10;;
5587;SDS011;2816;49.778;9.986;2022-12-10T05:51:03;23.83;;;13.60;;
5587;SDS011;2816;49.778;9.986;2022-12-10T05:53:30;27.40;;;13.50;;
5587;SDS011;2816;49.778;9.986;2022-12-10T05:56:01;20.50;;;12.47;;
5587;SDS011;2816;49.778;9.986;2022-12-10T05:58:29;16.77;;;11.93;;
5587;SDS011;2816;49.778;9.986;2022-12-10T06:00:57;18.40;;;12.20;;
5587;SDS011;2816;49.778;9.986;2022-12-10T06:03:26;17.00;;;11.70;;
5587;SDS011;2816;49.778;9.986;2022-12-10T06:05:53;18.27;;;11.43;;
5587;SDS011;2816;49.778;9.986;2022-12-10T06:08:20;21.07;;;12.80;;
5587;SDS011;2816;49.778;9.986;2022-12-10T06:10:48;25.50;;;13.20;;
5587;SDS011;2816;49.778;9.986;2022-12-10T06:13:14;28.40;;;11.80;;
5587;SDS011;2816;49.778;9.986;2022-12-10T06:15:42;20.93;;;12.20;;
5587;SDS011;2816;49.778;9.986;2022-12-10T06:18:10;18.93;;;11.50;;
5587;SDS011;2816;49.778;9.986;2022-12-10T06:20:38;23.63;;;12.20;;
5587;SDS011;2816;49.778;9.986;2022-12-10T06:23:05;24.23;;;11.67;;
5587;SDS011;2816;49.778;9.986;2022-12-10T06:25:32;22.27;;;11.67;;
5587;SDS011;2816;49.778;9.986;2022-12-10T06:27:59;17.10;;;10.97;;
5587;SDS011;2816;49.778;9.986;2022-12-10T06:30:26;17.97;;;11.43;;
5587;SDS011;2816;49.778;9.986;2022-12-10T06:32:53;19.23;;;12.17;;
5587;SDS011;2816;49.778;9.986;2022-12-10T06:35:22;20.60;;;12.73;;
5587;SDS011;2816;49.778;9.986;2022-12-10T06:37:49;25.30;;;11.53;;
5587;SDS011;2816;49.778;9.986;2022-12-10T06:40:16;20.20;;;12.63;;
5587;SDS011;2816;49.778;9.986;2022-12-10T06:42:43;18.07;;;13.20;;
5587;SDS011;2816;49.778;9.986;2022-12-10T06:45:10;17.87;;;11.47;;
5587;SDS011;2816;49.778;9.986;2022-12-10T06:47:37;21.83;;;12.70;;
5587;SDS011;2816;49.778;9.986;2022-12-10T06:50:04;16.07;;;10.97;;
5587;SDS011;2816;49.778;9.986;2022-12-10T06:52:33;23.07;;;12.40;;
5587;SDS011;2816;49.778;9.986;2022-12-10T06:55:00;17.83;;;11.20;;
5587;SDS011;2816;49.778;9.986;2022-12-10T06:57:28;21.53;;;12.37;;
5587;SDS011;2816;49.778;9.986;2022-12-10T06:59:55;17.70;;;11.53;;
5587;SDS011;2816;49.778;9.986;2022-12-10T07:02:22;19.67;;;12.27;;
5587;SDS011;2816;49.778;9.986;2022-12-10T07:04:49;17.80;;;11.00;;
5587;SDS011;2816;49.778;9.986;2022-12-10T07:07:16;17.77;;;11.47;;
5587;SDS011;2816;49.778;9.986;2022-12-10T07:09:44;20.50;;;12.00;;
5587;SDS011;2816;49.778;9.986;2022-12-10T07:12:11;27.40;;;11.40;;
5587;SDS011;2816;49.778;9.986;2022-12-10T07:14:38;20.17;;;11.57;;
5587;SDS011;2816;49.778;9.986;2022-12-10T07:17:05;19.57;;;12.20;;
5587;SDS011;2816;49.778;9.986;2022-12-10T07:19:32;24.17;;;11.83;;
5587;SDS011;2816;49.778;9.986;2022-12-10T07:21:59;21.13;;;10.30;;
5587;SDS011;2816;49.778;9.986;2022-12-10T07:24:26;23.93;;;11.60;;
5587;SDS011;2816;49.778;9.986;2022-12-10T07:26:54;24.77;;;13.23;;
5587;SDS011;2816;49.778;9.986;2022-12-10T07:29:21;22.97;;;12.77;;
5587;SDS011;2816;49.778;9.986;2022-12-10T07:31:48;24.17;;;13.57;;
5587;SDS011;2816;49.778;9.986;2022-12-10T07:34:15;27.37;;;13.13;;
5587;SDS011;2816;49.778;9.986;2022-12-10T07:36:44;24.17;;;13.27;;
5587;SDS011;2816;49.778;9.986;2022-12-10T07:39:12;28.60;;;12.80;;
5587;SDS011;2816;49.778;9.986;2022-12-10T07:41:42;20.00;;;12.10;;
5587;SDS011;2816;49.778;9.986;2022-12-10T07:44:12;19.00;;;12.40;;
5587;SDS011;2816;49.778;9.986;2022-12-10T07:46:39;34.03;;;12.80;;
5587;SDS011;2816;49.778;9.986;2022-12-10T07:49:08;23.00;;;13.30;;
5587;SDS011;2816;49.778;9.986;2022-12-10T07:51:35;20.30;;;12.30;;
5587;SDS011;2816;49.778;9.986;2022-12-10T07:54:02;21.30;;;13.63;;
5587;SDS011;2816;49.778;9.986;2022-12-10T07:56:29;24.03;;;14.20;;
5587;SDS011;2816;49.778;9.986;2022-12-10T07:58:56;21.73;;;12.93;;
5587;SDS011;2816;49.778;9.986;2022-12-10T08:01:25;18.37;;;12.50;;
5587;SDS011;2816;49.778;9.986;2022-12-10T08:03:53;22.97;;;13.60;;
5587;SDS011;2816;49.778;9.986;2022-12-10T08:06:22;24.10;;;13.13;;
5587;SDS011;2816;49.778;9.986;2022-12-10T08:08:50;48.83;;;13.17;;
5587;SDS011;2816;49.778;9.986;2022-12-10T08:11:18;18.27;;;12.00;;
5587;SDS011;2816;49.778;9.986;2022-12-10T08:13:48;23.27;;;13.70;;
5587;SDS011;2816;49.778;9.986;2022-12-10T08:16:16;19.63;;;13.93;;
5587;SDS011;2816;49.778;9.986;2022-12-10T08:18:46;27.97;;;14.53;;
5587;SDS011;2816;49.778;9.986;2022-12-10T08:21:14;20.33;;;13.30;;
5587;SDS011;2816;49.778;9.986;2022-12-10T08:23:43;24.33;;;13.30;;
5587;SDS011;2816;49.778;9.986;2022-12-10T08:26:11;24.63;;;13.73;;
5587;SDS011;2816;49.778;9.986;2022-12-10T08:28:39;22.90;;;13.03;;
5587;SDS011;2816;49.778;9.986;2022-12-10T08:31:07;20.97;;;12.97;;
5587;SDS011;2816;49.778;9.986;2022-12-10T08:33:36;21.60;;;12.97;;
5587;SDS011;2816;49.778;9.986;2022-12-10T08:36:06;27.77;;;14.13;;
5587;SDS011;2816;49.778;9.986;2022-12-10T08:38:35;26.57;;;14.07;;
5587;SDS011;2816;49.778;9.986;2022-12-10T08:41:05;20.37;;;14.33;;
5587;SDS011;2816;49.778;9.986;2022-12-10T08:43:33;28.80;;;18.80;;
5587;SDS011;2816;49.778;9.986;2022-12-10T08:46:01;31.47;;;17.47;;
5587;SDS011;2816;49.778;9.986;2022-12-10T08:48:29;25.40;;;16.70;;
5587;SDS011;2816;49.778;9.986;2022-12-10T08:50:56;32.03;;;19.63;;
5587;SDS011;2816;49.778;9.986;2022-12-10T08:53:24;30.13;;;19.60;;
5587;SDS011;2816;49.778;9.986;2022-12-10T08:55:51;28.30;;;17.47;;
5587;SDS011;2816;49.778;9.986;2022-12-10T08:58:19;34.90;;;18.70;;
5587;SDS011;2816;49.778;9.986;2022-12-10T09:00:47;34.93;;;17.23;;
5587;SDS011;2816;49.778;9.986;2022-12-10T09:03:15;27.73;;;17.43;;
5587;SDS011;2816;49.778;9.986;2022-12-10T09:05:43;38.20;;;19.57;;
5587;SDS011;2816;49.778;9.986;2022-12-10T09:08:10;48.40;;;26.17;;
5587;SDS011;2816;49.778;9.986;2022-12-10T09:10:38;36.83;;;21.67;;
5587;SDS011;2816;49.778;9.986;2022-12-10T09:13:07;43.53;;;21.63;;
5587;SDS011;2816;49.778;9.986;2022-12-10T09:15:34;48.23;;;19.53;;
5587;SDS011;2816;49.778;9.986;2022-12-10T09:18:01;34.50;;;19.50;;
5587;SDS011;2816;49.778;9.986;2022-12-10T09:20:28;36.47;;;20.43;;
5587;SDS011;2816;49.778;9.986;2022-12-10T09:22:56;30.37;;;18.70;;
5587;SDS011;2816;49.778;9.986;2022-12-10T09:25:23;34.57;;;17.67;;
5587;SDS011;2816;49.778;9.986;2022-12-10T09:27:52;35.07;;;18.63;;
5587;SDS011;2816;49.778;9.986;2022-12-10T09:30:19;38.07;;;18.30;;
5587;SDS011;2816;49.778;9.986;2022-12-10T09:32:46;38.47;;;19.00;;
5587;SDS011;2816;49.778;9.986;2022-12-10T09:35:13;38.30;;;19.57;;
5587;SDS011;2816;49.778;9.986;2022-12-10T09:37:40;35.53;;;18.87;;
5587;SDS011;2816;49.778;9.986;2022-12-10T09:40:09;28.33;;;16.27;;
5587;SDS011;2816;49.778;9.986;2022-12-10T09:42:42;31.30;;;17.70;;
5587;SDS011;2816;49.778;9.986;2022-12-10T09:45:20;32.27;;;18.00;;
5587;SDS011;2816;49.778;9.986;2022-12-10T09:47:57;27.20;;;15.33;;
5587;SDS011;2816;49.778;9.986;2022-12-10T09:50:29;32.20;;;16.20;;
5587;SDS011;2816;49.778;9.986;2022-12-10T09:52:59;29.50;;;16.20;;
5587;SDS011;2816;49.778;9.986;2022-12-10T09:55:31;23.77;;;14.77;;
5587;SDS011;2816;49.778;9.986;2022-12-10T09:58:01;25.10;;;15.97;;
5587;SDS011;2816;49.778;9.986;2022-12-10T10:00:34;30.70;;;17.67;;
5587;SDS011;2816;49.778;9.986;2022-12-10T10:03:04;29.43;;;16.93;;
5587;SDS011;2816;49.778;9.986;2022-12-10T10:05:33;25.03;;;15.90;;
5587;SDS011;2816;49.778;9.986;2022-12-10T10:08:04;28.67;;;16.77;;
5587;SDS011;2816;49.778;9.986;2022-12-10T10:10:39;27.57;;;16.60;;
5587;SDS011;2816;49.778;9.986;2022-12-10T10:13:11;27.90;;;15.30;;
5587;SDS011;2816;49.778;9.986;2022-12-10T10:15:45;20.80;;;13.87;;
5587;SDS011;2816;49.778;9.986;2022-12-10T10:18:14;31.80;;;14.27;;
5587;SDS011;2816;49.778;9.986;2022-12-10T10:20:49;26.93;;;15.00;;
5587;SDS011;2816;49.778;9.986;2022-12-10T10:23:16;24.00;;;15.47;;
5587;SDS011;2816;49.778;9.986;2022-12-10T10:25:43;25.73;;;15.13;;
5587;SDS011;2816;49.778;9.986;2022-12-10T10:28:11;27.07;;;14.30;;
5587;SDS011;2816;49.778;9.986;2022-12-10T10:30:46;27.70;;;17.00;;
5587;SDS011;2816;49.778;9.986;2022-12-10T10:33:14;24.87;;;16.47;;
5587;SDS011;2816;49.778;9.986;2022-12-10T10:35:43;24.00;;;14.50;;
5587;SDS011;2816;49.778;9.986;2022-12-10T10:38:15;29.00;;;15.70;;
5587;SDS011;2816;49.778;9.986;2022-12-10T10:40:46;21.63;;;13.23;;
5587;SDS011;2816;49.778;9.986;2022-12-10T10:43:18;23.53;;;15.30;;
5587;SDS011;2816;49.778;9.986;2022-12-10T10:45:51;28.30;;;15.77;;
5587;SDS011;2816;49.778;9.986;2022-12-10T10:48:20;28.03;;;15.97;;
5587;SDS011;2816;49.778;9.986;2022-12-10T10:50:50;33.03;;;14.97;;
5587;SDS011;2816;49.778;9.986;2022-12-10T10:53:29;20.20;;;13.47;;
5587;SDS011;2816;49.778;9.986;2022-12-10T10:55:59;23.40;;;16.00;;
5587;SDS011;2816;49.778;9.986;2022-12-10T10:58:33;23.20;;;14.03;;
5587;SDS011;2816;49.778;9.986;2022-12-10T11:01:03;21.90;;;14.77;;
5587;SDS011;2816;49.778;9.986;2022-12-10T11:03:34;24.60;;;17.17;;
5587;SDS011;2816;49.778;9.986;2022-12-10T11:06:05;26.40;;;15.50;;
5587;SDS011;2816;49.778;9.986;2022-12-10T11:08:34;27.33;;;16.47;;
5587;SDS011;2816;49.778;9.986;2022-12-10T11:11:03;23.93;;;15.63;;
5587;SDS011;2816;49.778;9.986;2022-12-10T11:13:32;25.73;;;15.70;;
5587;SDS011;2816;49.778;9.986;2022-12-10T11:16:10;26.67;;;14.80;;
5587;SDS011;2816;49.778;9.986;2022-12-10T11:18:40;25.67;;;16.00;;
5587;SDS011;2816;49.778;9.986;2022-12-10T11:21:15;25.23;;;15.63;;
5587;SDS011;2816;49.778;9.986;2022-12-10T11:23:45;24.13;;;15.10;;
5587;SDS011;2816;49.778;9.986;2022-12-10T11:26:21;24.70;;;14.53;;
5587;SDS011;2816;49.778;9.986;2022-12-10T11:29:17;32.57;;;16.90;;
5587;SDS011;2816;49.778;9.986;2022-12-10T11:31:55;23.40;;;15.63;;
5587;SDS011;2816;49.778;9.986;2022-12-10T11:34:35;23.20;;;14.17;;
5587;SDS011;2816;49.778;9.986;2022-12-10T11:37:13;22.77;;;14.40;;
5587;SDS011;2816;49.778;9.986;2022-12-10T11:39:53;41.87;;;15.40;;
5587;SDS011;2816;49.778;9.986;2022-12-10T11:42:42;25.10;;;15.40;;
5587;SDS011;2816;49.778;9.986;2022-12-10T11:45:19;23.60;;;15.60;;
5587;SDS011;2816;49.778;9.986;2022-12-10T11:47:55;36.97;;;15.70;;
5587;SDS011;2816;49.778;9.986;2022-12-10T11:50:33;26.30;;;15.20;;
5587;SDS011;2816;49.778;9.986;2022-12-10T11:53:11;24.47;;;14.50;;
5587;SDS011;2816;49.778;9.986;2022-12-10T11:55:47;22.60;;;13.80;;
5587;SDS011;2816;49.778;9.986;2022-12-10T11:58:33;45.90;;;14.97;;
5587;SDS011;2816;49.778;9.986;2022-12-10T12:01:12;24.63;;;14.97;;
5587;SDS011;2816;49.778;9.986;2022-12-10T12:03:54;23.80;;;15.13;;
5587;SDS011;2816;49.778;9.986;2022-12-10T12:06:35;33.53;;;14.33;;
5587;SDS011;2816;49.778;9.986;2022-12-10T12:09:16;19.87;;;13.27;;
5587;SDS011;2816;49.778;9.986;2022-12-10T12:11:57;23.50;;;14.33;;
5587;SDS011;2816;49.778;9.986;2022-12-10T12:14:39;30.20;;;16.03;;
5587;SDS011;2816;49.778;9.986;2022-12-10T12:17:10;31.43;;;17.93;;
5587;SDS011;2816;49.778;9.986;2022-12-10T12:19:46;45.77;;;16.50;;
5587;SDS011;2816;49.778;9.986;2022-12-10T12:22:16;23.53;;;14.03;;
5587;SDS011;2816;49.778;9.986;2022-12-10T12:24:50;23.03;;;14.30;;
5587;SDS011;2816;49.778;9.986;2022-12-10T12:27:22;37.47;;;14.20;;
5587;SDS011;2816;49.778;9.986;2022-12-10T12:30:00;24.80;;;14.67;;
5587;SDS011;2816;49.778;9.986;2022-12-10T12:32:31;22.13;;;13.80;;
5587;SDS011;2816;49.778;9.986;2022-12-10T12:35:14;24.93;;;14.30;;
5587;SDS011;2816;49.778;9.986;2022-12-10T12:37:46;20.00;;;12.40;;
5587;SDS011;2816;49.778;9.986;2022-12-10T12:40:21;24.40;;;13.53;;
5587;SDS011;2816;49.778;9.986;2022-12-10T12:42:54;28.20;;;14.73;;
5587;SDS011;2816;49.778;9.986;2022-12-10T12:45:28;23.67;;;13.40;;
5587;SDS011;2816;49.778;9.986;2022-12-10T12:48:04;24.50;;;14.47;;
5587;SDS011;2816;49.778;9.986;2022-12-10T12:50:43;19.70;;;12.63;;
5587;SDS011;2816;49.778;9.986;2022-12-10T12:53:12;21.07;;;13.50;;
5587;SDS011;2816;49.778;9.986;2022-12-10T12:55:47;25.43;;;15.00;;
5587;SDS011;2816;49.778;9.986;2022-12-10T12:58:27;24.00;;;14.93;;
5587;SDS011;2816;49.778;9.986;2022-12-10T13:01:00;24.63;;;15.53;;
5587;SDS011;2816;49.778;9.986;2022-12-10T13:03:35;26.77;;;15.67;;
5587;SDS011;2816;49.778;9.986;2022-12-10T13:06:14;30.50;;;15.50;;
5587;SDS011;2816;49.778;9.986;2022-12-10T13:08:44;25.00;;;15.27;;
5587;SDS011;2816;49.778;9.986;2022-12-10T13:11:18;23.80;;;13.57;;
5587;SDS011;2816;49.778;9.986;2022-12-10T13:17:05;27.50;;;16.80;;
5587;SDS011;2816;49.778;9.986;2022-12-10T13:19:49;24.93;;;15.00;;
5587;SDS011;2816;49.778;9.986;2022-12-10T13:25:11;27.13;;;16.97;;
5587;SDS011;2816;49.778;9.986;2022-12-10T13:27:40;27.50;;;16.50;;
5587;SDS011;2816;49.778;9.986;2022-12-10T13:30:25;24.87;;;16.10;;
5587;SDS011;2816;49.778;9.986;2022-12-10T13:33:02;27.47;;;15.40;;
5587;SDS011;2816;49.778;9.986;2022-12-10T13:35:41;27.23;;;16.50;;
5587;SDS011;2816;49.778;9.986;2022-12-10T13:38:20;24.13;;;14.60;;
5587;SDS011;2816;49.778;9.986;2022-12-10T13:41:02;22.97;;;14.00;;
5587;SDS011;2816;49.778;9.986;2022-12-10T13:43:56;27.57;;;15.87;;
5587;SDS011;2816;49.778;9.986;2022-12-10T13:46:56;22.27;;;14.77;;
5587;SDS011;2816;49.778;9.986;2022-12-10T13:49:25;22.03;;;14.30;;
5587;SDS011;2816;49.778;9.986;2022-12-10T13:51:55;27.53;;;15.43;;
5587;SDS011;2816;49.778;9.986;2022-12-10T13:54:44;27.97;;;14.00;;
5587;SDS011;2816;49.778;9.986;2022-12-10T13:57:32;20.00;;;12.97;;
5587;SDS011;2816;49.778;9.986;2022-12-10T14:00:17;23.73;;;14.70;;
5587;SDS011;2816;49.778;9.986;2022-12-10T14:03:00;27.97;;;15.23;;
5587;SDS011;2816;49.778;9.986;2022-12-10T14:05:53;23.67;;;14.50;;
5587;SDS011;2816;49.778;9.986;2022-12-10T14:08:30;26.03;;;13.80;;
5587;SDS011;2816;49.778;9.986;2022-12-10T14:11:01;22.50;;;14.10;;
5587;SDS011;2816;49.778;9.986;2022-12-10T14:13:33;22.20;;;14.07;;
5587;SDS011;2816;49.778;9.986;2022-12-10T14:16:04;22.53;;;13.87;;
5587;SDS011;2816;49.778;9.986;2022-12-10T14:18:35;22.93;;;13.33;;
5587;SDS011;2816;49.778;9.986;2022-12-10T14:21:04;19.40;;;12.80;;
5587;SDS011;2816;49.778;9.986;2022-12-10T14:23:33;25.40;;;14.17;;
5587;SDS011;2816;49.778;9.986;2022-12-10T14:26:05;23.30;;;14.60;;
5587;SDS011;2816;49.778;9.986;2022-12-10T14:28:36;22.87;;;14.23;;
5587;SDS011;2816;49.778;9.986;2022-12-10T14:31:07;23.80;;;14.43;;
5587;SDS011;2816;49.778;9.986;2022-12-10T14:33:39;22.57;;;13.80;;
5587;SDS011;2816;49.778;9.986;2022-12-10T14:36:12;21.60;;;13.80;;
5587;SDS011;2816;49.778;9.986;2022-12-10T14:38:43;21.90;;;13.00;;
5587;SDS011;2816;49.778;9.986;2022-12-10T14:41:14;23.03;;;13.07;;
5587;SDS011;2816;49.778;9.986;2022-12-10T14:43:45;23.00;;;14.53;;
5587;SDS011;2816;49.778;9.986;2022-12-10T14:46:13;31.97;;;18.70;;
5587;SDS011;2816;49.778;9.986;2022-12-10T14:48:43;23.03;;;14.00;;
5587;SDS011;2816;49.778;9.986;2022-12-10T14:51:12;28.10;;;16.43;;
5587;SDS011;2816;49.778;9.986;2022-12-10T14:53:41;29.03;;;18.43;;
5587;SDS011;2816;49.778;9.986;2022-12-10T14:56:18;25.33;;;14.90;;
5587;SDS011;2816;49.778;9.986;2022-12-10T14:58:52;24.93;;;14.47;;
5587;SDS011;2816;49.778;9.986;2022-12-10T15:01:26;25.87;;;14.60;;
5587;SDS011;2816;49.778;9.986;2022-12-10T15:03:55;24.23;;;14.30;;
5587;SDS011;2816;49.778;9.986;2022-12-10T15:06:25;23.63;;;13.97;;
5587;SDS011;2816;49.778;9.986;2022-12-10T15:08:53;23.90;;;13.30;;
5587;SDS011;2816;49.778;9.986;2022-12-10T15:11:25;25.37;;;15.57;;
5587;SDS011;2816;49.778;9.986;2022-12-10T15:13:54;28.87;;;15.93;;
5587;SDS011;2816;49.778;9.986;2022-12-10T15:16:28;26.37;;;15.40;;